香港 の空港の天気 - METARとTAF

香港国際空港 ( VHHH / HKG ) - 香港 赤リョウ角
飛行場実況気象(Metar)
観測時間07/21 06:00 HKT (07/20 22:00 UTC)
風向・風速東 2m/s
視程10km以上
天気現象
少しの雲 雲底高度 580m
全天の4割程度の雲 雲底高度 1070m
気温28℃
湿度84%
気圧1008hPa
METARVHHH 202200Z 08004KT 9999 FEW019 SCT035 28/25 Q1008 NOSIG
過去の天気等 Google飛行場航空写真 Wunderground天気予報

過去48時間のMETAR

飛行場予報(TAF)
発表時間: 7/21 01:00 HKT (7/20 17:00 UTC)
予報対象時間: 21日2時 HKT ~ 22日8時 HKT
風向・風速東 5m/s
視程10km以上
少しの雲 雲底高度 610m
21日2時 HKT ~ 21日8時 HKT に一時的に
風向・風速不定 3m/s
22日2時 HKT ~ 22日8時 HKT に一時的に
視程3,500m
天気現象しゅう雨
少しの積乱雲 雲底高度 370m
全天の4割程度の雲 雲底高度 610m
TAF VHHH 201700Z 2018/2124 10010KT 9999 FEW020 TX34/2106Z TN29/2022Z TN28/2122Z
TEMPO 2018/2024 VRB05KT
TEMPO 2118/2124 3500 SHRA FEW012CB SCT020